»·PEaware :: N614R L52-L88

N614R :: L52-L88

FLIGHT INFORMATION

Flight Status: Arrived
Operator: Privately registered:
United States
More flights under this callsign
Pilot: Rob R. (23322)
Aircraft: CESSNA 172 SKYHAWK
(C172)
More flights by this aircraft type
Origin: L52 Oceano Co
United States
Destination: L88 New Cuyama
United States
More flights between these airports :: More routes between these airports
Route:
File this flight plan on PilotEdge
Remarks: CAT 1
Altitude:
(Current/Filed)
5,000ft
Speed:
(Current/Filed)
115kts
Departed: 07-Feb-19 06:05 PM
Arrived: 07-Feb-19 06:39 PM
Distance/Time
Traveled:
47nm/0:34
Distance/Time
To Go:
Arrived

Flight Plot

Page will automatically refresh every two minutes.


Map Options




Map Legend


Flown Route
Filed Route
Departure Airport
Arrival Airport
Navaid (VOR, NDB)
Fix

Horizontal Profiles

Position Reports

Time Latitude Longitude Heading Altitude Ground
Speed
07-Feb-19 17:58 35.102275 -120.622530 210 18ft 0kts
07-Feb-19 17:58 35.102275 -120.622530 210 18ft 0kts
07-Feb-19 17:59 35.102275 -120.622530 210 18ft 0kts
07-Feb-19 18:00 35.102113 -120.622342 112 18ft 6kts
07-Feb-19 18:02 35.101191 -120.622507 162 18ft 6kts
07-Feb-19 18:02 35.099528 -120.619392 64 18ft 0kts
07-Feb-19 18:03 35.100037 -120.619545 304 18ft 9kts
07-Feb-19 18:04 35.109070 -120.638029 290 648ft 76kts
07-Feb-19 18:05 35.116377 -120.645879 82 1674ft 77kts
07-Feb-19 18:06 35.120917 -120.620161 74 2677ft 78kts
07-Feb-19 18:07 35.122840 -120.593027 89 3599ft 82kts
07-Feb-19 18:08 35.127715 -120.566282 83 4499ft 81kts
07-Feb-19 18:09 35.131121 -120.537710 79 5019ft 92kts
07-Feb-19 18:10 35.137210 -120.501743 81 4967ft 125kts
07-Feb-19 18:11 35.140574 -120.461301 80 5155ft 120kts
07-Feb-19 18:12 35.145484 -120.419138 85 5084ft 122kts
07-Feb-19 18:13 35.146390 -120.376515 88 4979ft 127kts
07-Feb-19 18:14 35.144733 -120.332718 99 4771ft 130kts
07-Feb-19 18:15 35.145193 -120.290709 86 4834ft 120kts
07-Feb-19 18:16 35.145860 -120.249303 86 4868ft 117kts
07-Feb-19 18:17 35.146917 -120.209278 90 4985ft 115kts
07-Feb-19 18:18 35.147167 -120.168708 90 5020ft 118kts
07-Feb-19 18:19 35.142793 -120.128848 113 4976ft 120kts
07-Feb-19 18:20 35.127134 -120.093290 119 4938ft 119kts
07-Feb-19 18:21 35.111277 -120.057934 118 4921ft 118kts
07-Feb-19 18:22 35.096074 -120.022136 118 4947ft 118kts
07-Feb-19 18:23 35.078749 -119.988005 128 4997ft 119kts
07-Feb-19 18:24 35.063392 -119.952645 114 5039ft 119kts
07-Feb-19 18:25 35.046972 -119.917570 118 5076ft 118kts
07-Feb-19 18:26 35.033041 -119.881006 116 5094ft 120kts
07-Feb-19 18:27 35.016816 -119.844553 121 4972ft 125kts
07-Feb-19 18:28 35.001680 -119.808923 118 5088ft 118kts
07-Feb-19 18:29 34.985039 -119.773959 122 5122ft 118kts
07-Feb-19 18:30 34.965265 -119.742066 132 4528ft 119kts
07-Feb-19 18:31 34.944244 -119.711827 124 3154ft 118kts
07-Feb-19 18:32 34.929531 -119.679647 114 2918ft 104kts
07-Feb-19 18:33 34.918588 -119.651176 117 3106ft 85kts
07-Feb-19 18:34 34.909968 -119.625029 100 2920ft 76kts
07-Feb-19 18:35 34.926481 -119.623976 275 2789ft 78kts
07-Feb-19 18:36 34.927373 -119.652143 274 2651ft 78kts
07-Feb-19 18:37 34.935335 -119.674364 299 2414ft 70kts
07-Feb-19 18:38 34.940734 -119.687511 295 2207ft 24kts
07-Feb-19 18:39 34.942774 -119.690711 182 2207ft 5kts
07-Feb-19 18:40 34.942706 -119.690595 27 2207ft 0kts
07-Feb-19 18:41 34.942706 -119.690595 27 2207ft 0kts
07-Feb-19 18:42 34.942706 -119.690595 27 2207ft 0kts
07-Feb-19 18:43 34.942705 -119.690595 27 2207ft 0kts
07-Feb-19 18:44 34.942705 -119.690595 27 2207ft 0kts
07-Feb-19 18:45 34.942705 -119.690595 27 2207ft 0kts
07-Feb-19 18:46 34.942705 -119.690595 27 2207ft 0kts
07-Feb-19 18:47 34.942705 -119.690595 27 2207ft 0kts
07-Feb-19 18:48 34.942705 -119.690595 27 2207ft 0kts
07-Feb-19 18:49 34.942705 -119.690595 27 2207ft 0kts
07-Feb-19 18:50 34.942705 -119.690595 27 2207ft 0kts
07-Feb-19 18:51 34.942705 -119.690595 27 2207ft 0kts
07-Feb-19 18:52 34.942705 -119.690595 27 2207ft 0kts
07-Feb-19 18:53 34.942705 -119.690595 27 2207ft 0kts

Navigation Log

Ident Type
Flight plan parsing failed, navigation log unavailable